Time;durP1;ratioP1;P1;durP2;ratioP2;P2;SDS_P1;SDS_P2;PMS_P1;PMS_P2;Temp;Humidity;BMP_temperature;BMP_pressure;BME280_temperature;BME280_humidity;BME280_pressure;Samples;Min_cycle;Max_cycle;Signal;HPM_P1;HPM_P2
2022/04/09 00:00:51;;;;;;;4.53;1.60;;;;;;;20.32;30.42;94217.94;5031975;28;20965;-60
2022/04/09 00:03:18;;;;;;;2.40;1.50;;;;;;;20.06;30.54;94234.19;5032651;28;20443;-61
2022/04/09 00:05:46;;;;;;;3.30;1.60;;;;;;;20.16;29.94;94233.75;5032017;28;20543;-63
2022/04/09 00:08:14;;;;;;;4.57;1.80;;;;;;;20.51;29.91;94207.50;5032010;28;20459;-61
2022/04/09 00:10:41;;;;;;;2.30;1.70;;;;;;;20.54;29.48;94222.84;5031821;28;21117;-61
2022/04/09 00:13:08;;;;;;;3.63;1.60;;;;;;;20.50;29.49;94224.59;5032279;28;20483;-62
2022/04/09 00:15:35;;;;;;;3.43;1.67;;;;;;;20.44;30.02;94227.81;5031662;28;20431;-63
2022/04/09 00:18:02;;;;;;;6.00;1.70;;;;;;;20.16;30.17;94235.63;5031578;28;20479;-61
2022/04/09 00:20:29;;;;;;;4.93;1.50;;;;;;;20.63;29.23;94225.38;5031812;28;20424;-62
2022/04/09 00:22:57;;;;;;;3.43;1.70;;;;;;;20.38;29.94;94229.94;5031926;28;20470;-61
2022/04/09 00:25:24;;;;;;;3.33;1.60;;;;;;;20.63;29.36;94236.81;5031590;28;20439;-61
2022/04/09 00:27:51;;;;;;;2.93;1.63;;;;;;;21.02;29.25;94235.34;5032132;28;20482;-62
2022/04/09 00:30:19;;;;;;;4.63;1.47;;;;;;;20.74;29.38;94237.91;5030996;28;20815;-62
2022/04/09 00:32:46;;;;;;;2.63;1.50;;;;;;;20.40;29.74;94227.69;5031978;28;20981;-62
2022/04/09 00:35:15;;;;;;;4.50;1.60;;;;;;;20.89;29.67;94229.22;5030480;28;20509;-63
2022/04/09 00:37:46;;;;;;;3.83;1.37;;;;;;;20.82;29.42;94226.34;5032193;28;20439;-62
2022/04/09 00:40:18;;;;;;;2.87;1.80;;;;;;;20.40;30.41;94238.34;5031087;28;20427;-63
2022/04/09 00:42:46;;;;;;;2.87;1.43;;;;;;;20.40;30.23;94216.28;5030667;28;20448;-63
2022/04/09 00:45:14;;;;;;;3.07;1.50;;;;;;;20.55;29.80;94219.03;5031148;28;20470;-61
2022/04/09 00:47:41;;;;;;;3.90;1.53;;;;;;;20.68;29.83;94206.50;5031767;28;21134;-61
2022/04/09 00:50:09;;;;;;;2.27;1.47;;;;;;;20.74;29.61;94216.59;5030407;28;20890;-61
2022/04/09 00:52:57;;;;;;;3.70;1.40;;;;;;;21.27;29.14;94201.41;5031582;28;20498;-61
2022/04/09 00:58:17;;;;;;;6.00;1.93;;;;;;;21.48;28.96;94208.09;5031388;28;20451;-61
2022/04/09 01:00:45;;;;;;;2.90;2.13;;;;;;;21.49;29.47;94214.22;5031012;28;20452;-61
2022/04/09 01:03:17;;;;;;;7.10;2.67;;;;;;;21.09;29.98;94212.34;5031131;28;20482;-59
2022/04/09 01:05:44;;;;;;;5.00;1.93;;;;;;;20.83;30.59;94206.59;5030654;28;20452;-60
2022/04/09 01:08:12;;;;;;;4.80;2.43;;;;;;;20.91;30.52;94203.03;5029583;28;20473;-62
2022/04/09 01:10:40;;;;;;;5.67;2.40;;;;;;;20.80;30.60;94198.50;5030340;28;20521;-62
2022/04/09 01:13:07;;;;;;;3.67;2.50;;;;;;;20.56;31.25;94209.19;5029361;28;20483;-62
2022/04/09 01:15:35;;;;;;;3.57;2.20;;;;;;;20.53;31.22;94197.31;5028968;28;20486;-61
2022/04/09 01:18:02;;;;;;;4.63;2.53;;;;;;;20.49;31.10;94193.75;5029311;28;20490;-61
2022/04/09 01:20:31;;;;;;;5.07;2.33;;;;;;;20.57;31.44;94190.22;5028785;28;20785;-61
2022/04/09 01:22:58;;;;;;;6.30;2.40;;;;;;;20.47;31.46;94185.34;5029268;28;20846;-62
2022/04/09 01:25:25;;;;;;;3.10;2.03;;;;;;;20.44;31.79;94183.34;5029261;28;20845;-60
2022/04/09 01:27:58;;;;;;;6.17;2.70;;;;;;;20.00;32.31;94197.47;5029497;28;20211;-61
2022/04/09 01:30:25;;;;;;;5.63;2.63;;;;;;;19.79;32.54;94197.56;5028591;28;20467;-62
2022/04/09 01:32:52;;;;;;;6.23;3.00;;;;;;;19.94;32.53;94198.81;5029226;28;20483;-61
2022/04/09 01:35:19;;;;;;;4.93;2.70;;;;;;;20.30;31.79;94190.91;5029150;28;20464;-62
2022/04/09 01:37:46;;;;;;;5.27;2.50;;;;;;;20.15;31.76;94194.19;5028694;28;21412;-61
2022/04/09 01:40:16;;;;;;;5.23;2.80;;;;;;;20.10;31.99;94194.41;5028394;28;20535;-60
2022/04/09 01:42:47;;;;;;;5.47;2.87;;;;;;;20.17;31.81;94190.13;5029036;28;21019;-61
2022/04/09 01:45:15;;;;;;;6.33;2.90;;;;;;;20.04;31.61;94193.84;5028569;28;20447;-60
2022/04/09 01:47:43;;;;;;;4.10;2.50;;;;;;;20.18;31.42;94188.25;5029155;28;20874;-61
2022/04/09 01:50:11;;;;;;;5.70;2.60;;;;;;;20.22;31.66;94183.78;5028240;28;20476;-62
2022/04/09 01:52:38;;;;;;;4.40;2.80;;;;;;;19.63;32.22;94199.31;5029027;28;21013;-60
2022/04/09 01:55:06;;;;;;;6.43;2.87;;;;;;;19.89;31.76;94191.06;5028247;28;20833;-61
2022/04/09 01:57:35;;;;;;;5.03;2.90;;;;;;;20.00;31.97;94197.47;5028701;28;20436;-66
2022/04/09 02:00:08;;;;;;;5.83;2.80;;;;;;;19.73;32.50;94192.78;5029855;28;20531;-61
2022/04/09 02:02:39;;;;;;;3.70;2.30;;;;;;;19.91;32.22;94208.22;5030016;28;20431;-62
2022/04/09 02:05:11;;;;;;;5.13;3.10;;;;;;;19.75;32.33;94204.63;5028035;28;20443;-59
2022/04/09 02:07:41;;;;;;;4.33;2.60;;;;;;;19.91;32.13;94196.78;5028734;28;20443;-62
2022/04/09 02:10:09;;;;;;;7.50;6.90;;;;;;;20.00;31.69;94208.13;5028131;28;20443;-61
2022/04/09 02:12:39;;;;;;;5.10;2.85;;;;;;;19.71;32.14;94205.63;5028578;28;20233;-60
2022/04/09 02:15:09;;;;;;;7.10;2.38;;;;;;;19.72;32.48;94207.97;5029229;28;20195;-60
2022/04/09 02:17:38;;;;;;;;;;;;;;;19.80;32.39;94193.00;5028574;28;20226;-61
2022/04/09 02:20:07;;;;;;;7.88;2.80;;;;;;;19.51;32.96;94195.81;5043108;28;20423;-61
2022/04/09 02:22:42;;;;;;;6.83;2.50;;;;;;;19.65;32.58;94202.38;5028557;28;20219;-63
2022/04/09 02:25:19;;;;;;;7.37;2.60;;;;;;;19.91;32.36;94200.25;5028909;28;20443;-63
2022/04/09 02:27:47;;;;;;;9.33;2.90;;;;;;;19.61;32.66;94195.41;5027958;28;20451;-61
2022/04/09 02:30:18;;;;;;;4.50;2.60;;;;;;;19.69;32.30;94191.91;5027677;28;20506;-61
2022/04/09 02:33:01;;;;;;;7.70;2.73;;;;;;;19.66;32.33;94200.50;5028088;28;20483;-61
2022/04/09 02:35:33;;;;;;;6.73;2.97;;;;;;;19.58;32.71;94207.47;5027709;28;20758;-62
2022/04/09 02:38:02;;;;;;;4.30;2.53;;;;;;;19.33;33.61;94213.00;5028446;28;20510;-61
2022/04/09 02:40:31;;;;;;;7.30;3.50;;;;;;;18.71;34.16;94215.63;5027100;28;20447;-62
2022/04/09 02:42:58;;;;;;;7.50;3.37;;;;;;;18.70;34.02;94214.84;5027944;28;20436;-62
2022/04/09 02:45:26;;;;;;;9.60;3.83;;;;;;;18.88;34.46;94195.09;5029448;28;20428;-62
2022/04/09 02:47:54;;;;;;;9.77;3.60;;;;;;;18.61;34.91;94195.56;5028122;28;20448;-61
2022/04/09 02:50:25;;;;;;;7.47;3.63;;;;;;;18.72;35.04;94206.59;5027344;28;20440;-62
2022/04/09 02:52:53;;;;;;;8.17;3.80;;;;;;;17.76;36.34;94209.16;5028120;28;20577;-62
2022/04/09 02:55:21;;;;;;;6.23;3.20;;;;;;;18.40;35.17;94213.28;5027370;28;20436;-61
2022/04/09 02:57:50;;;;;;;7.03;3.50;;;;;;;18.53;34.80;94193.75;5027891;28;20455;-62
2022/04/09 03:00:19;;;;;;;10.17;3.60;;;;;;;18.51;34.79;94187.19;5027173;28;20459;-61
2022/04/09 03:02:48;;;;;;;10.53;3.20;;;;;;;18.50;34.71;94188.31;5027978;28;20490;-62
2022/04/09 03:05:30;;;;;;;5.43;3.27;;;;;;;18.58;35.04;94185.59;5027243;28;20837;-62
2022/04/09 03:07:57;;;;;;;8.47;3.33;;;;;;;18.46;35.41;94193.47;5027963;28;20981;-62
2022/04/09 03:10:27;;;;;;;5.20;3.10;;;;;;;18.26;35.54;94194.19;5028572;28;21024;-60
2022/04/09 03:12:54;;;;;;;6.20;3.37;;;;;;;18.34;35.26;94198.66;5028889;28;20483;-61
2022/04/09 03:15:21;;;;;;;9.77;3.10;;;;;;;18.39;35.32;94203.78;5027149;28;20535;-62
2022/04/09 03:17:48;;;;;;;6.57;3.53;;;;;;;18.41;34.85;94192.84;5027811;28;20518;-61
2022/04/09 03:20:17;;;;;;;5.60;3.00;;;;;;;18.29;35.17;94198.06;5027092;28;20944;-63
2022/04/09 03:22:45;;;;;;;8.57;3.20;;;;;;;18.20;35.70;94185.63;5027944;28;20572;-63
2022/04/09 03:25:17;;;;;;;8.60;3.30;;;;;;;18.20;35.75;94190.94;5027061;28;20612;-60
2022/04/09 03:27:48;;;;;;;7.50;3.13;;;;;;;17.97;36.07;94191.50;5027481;28;20937;-61
2022/04/09 03:30:15;;;;;;;7.43;3.63;;;;;;;17.84;35.76;94185.31;5027215;28;20531;-60
2022/04/09 03:32:43;;;;;;;8.87;3.70;;;;;;;17.96;36.42;94174.81;5027910;28;20494;-62
2022/04/09 03:35:16;;;;;;;7.60;3.60;;;;;;;18.03;35.88;94179.59;5027222;28;20456;-61
2022/04/09 03:37:45;;;;;;;6.17;3.13;;;;;;;18.24;35.39;94172.50;5027478;28;20930;-61
2022/04/09 03:40:17;;;;;;;6.53;3.30;;;;;;;18.21;35.37;94187.16;5028315;28;20446;-61
2022/04/09 03:42:45;;;;;;;8.07;3.67;;;;;;;18.15;36.11;94185.03;5027397;28;20451;-61
2022/04/09 03:45:12;;;;;;;5.63;3.30;;;;;;;18.02;36.03;94172.75;5027078;28;20550;-61
2022/04/09 03:47:40;;;;;;;9.43;3.27;;;;;;;18.19;36.02;94191.25;5027627;28;21043;-62
2022/04/09 03:50:12;;;;;;;8.50;4.23;;;;;;;17.77;36.09;94195.59;5026692;28;20439;-63
2022/04/09 03:52:40;;;;;;;8.03;3.87;;;;;;;17.68;36.42;94199.38;5027139;28;20480;-61
2022/04/09 03:55:08;;;;;;;10.00;3.80;;;;;;;18.04;35.89;94191.78;5026893;28;20444;-61
2022/04/09 03:57:35;;;;;;;7.30;4.00;;;;;;;18.16;36.10;94175.97;5027382;28;20448;-62
2022/04/09 04:00:03;;;;;;;11.13;4.27;;;;;;;18.19;35.74;94178.00;5026849;28;20501;-62
2022/04/09 04:02:40;;;;;;;8.23;4.60;;;;;;;17.33;37.12;94182.75;5032066;28;20573;-61
2022/04/09 04:05:09;;;;;;;8.63;4.30;;;;;;;17.16;37.25;94180.13;5030687;28;20989;-62
2022/04/09 04:07:36;;;;;;;10.30;4.30;;;;;;;17.57;37.40;94176.97;5032242;28;20455;-62
2022/04/09 04:10:15;;;;;;;13.57;4.67;;;;;;;17.58;37.02;94192.56;5030146;28;20530;-62
2022/04/09 04:12:47;;;;;;;10.53;4.30;;;;;;;16.73;38.82;94164.25;5030525;28;20518;-61
2022/04/09 04:15:17;;;;;;;8.87;4.30;;;;;;;17.11;37.88;94202.25;5030070;28;20494;-60
2022/04/09 04:17:49;;;;;;;9.50;4.27;;;;;;;16.86;38.78;94195.06;5029973;28;20618;-63
2022/04/09 04:20:21;;;;;;;10.37;4.27;;;;;;;17.27;37.35;94172.63;5029992;28;20869;-62
2022/04/09 04:22:53;;;;;;;7.07;4.17;;;;;;;17.30;37.64;94182.59;5030375;28;20479;-60
2022/04/09 04:25:21;;;;;;;13.30;4.30;;;;;;;17.43;37.45;94171.81;5030095;28;20440;-62
2022/04/09 04:27:49;;;;;;;8.53;4.23;;;;;;;17.60;37.43;94181.63;5030090;28;20471;-62
2022/04/09 04:30:18;;;;;;;10.63;3.87;;;;;;;17.14;37.60;94180.44;5029942;28;20490;-61
2022/04/09 04:32:46;;;;;;;9.30;4.40;;;;;;;16.94;38.89;94191.66;5030315;28;20495;-61
2022/04/09 04:35:16;;;;;;;9.57;4.30;;;;;;;16.70;39.27;94186.03;5029969;28;20478;-60
2022/04/09 04:37:45;;;;;;;12.03;4.60;;;;;;;17.36;38.09;94170.75;5030371;28;20443;-62
2022/04/09 04:40:16;;;;;;;14.53;4.80;;;;;;;17.38;37.78;94179.16;5030065;28;20451;-59
2022/04/09 04:42:50;;;;;;;11.20;4.73;;;;;;;17.10;38.73;94179.50;5030106;28;20447;-61
2022/04/09 04:45:19;;;;;;;10.37;4.60;;;;;;;17.37;38.52;94172.31;5029713;28;20456;-60
2022/04/09 04:47:50;;;;;;;14.00;5.47;;;;;;;17.44;38.69;94167.31;5029438;28;20527;-60
2022/04/09 04:50:21;;;;;;;11.23;4.77;;;;;;;16.71;39.61;94168.31;5029687;28;20981;-61
2022/04/09 04:52:49;;;;;;;12.17;4.27;;;;;;;17.04;39.57;94164.88;5029823;28;21017;-62
2022/04/09 04:55:18;;;;;;;14.47;4.67;;;;;;;17.59;38.41;94180.09;5029733;28;20440;-62
2022/04/09 04:57:51;;;;;;;13.97;4.63;;;;;;;17.77;37.53;94171.75;5029939;28;20439;-62
2022/04/09 05:00:26;;;;;;;12.63;4.60;;;;;;;18.00;37.42;94159.84;5029553;28;20467;-63
2022/04/09 05:02:58;;;;;;;13.03;4.60;;;;;;;18.21;37.92;94159.88;5029871;28;21020;-62
2022/04/09 05:05:26;;;;;;;14.13;4.47;;;;;;;18.18;37.62;94165.81;5029574;28;21076;-63
2022/04/09 05:07:55;;;;;;;12.00;4.47;;;;;;;17.94;37.56;94155.00;5031246;28;20427;-62
2022/04/09 05:10:25;;;;;;;12.57;4.40;;;;;;;17.77;37.83;94153.19;5029328;28;20439;-61
2022/04/09 05:12:54;;;;;;;14.73;4.63;;;;;;;18.14;36.97;94131.22;5028435;28;20495;-61
2022/04/09 05:15:24;;;;;;;10.63;4.70;;;;;;;18.56;36.60;94140.03;5029554;28;20525;-62
2022/04/09 05:17:52;;;;;;;15.23;5.20;;;;;;;18.75;36.51;94143.03;5029484;28;20557;-62
2022/04/09 05:20:21;;;;;;;16.60;5.03;;;;;;;18.77;36.78;94138.19;5028814;28;20444;-61
2022/04/09 05:22:50;;;;;;;14.00;5.40;;;;;;;18.93;36.63;94138.34;5029452;28;20501;-61
2022/04/09 05:25:19;;;;;;;17.20;6.00;;;;;;;19.02;36.70;94150.47;5029270;28;20452;-60
2022/04/09 05:27:50;;;;;;;18.00;6.77;;;;;;;18.97;37.13;94150.66;5029605;28;20832;-62
2022/04/09 05:30:32;;;;;;;10.73;5.27;;;;;;;19.06;36.31;94126.69;5028788;28;20994;-63
2022/04/09 05:33:00;;;;;;;10.80;5.53;;;;;;;19.19;36.17;94142.34;5029295;28;20553;-62
2022/04/09 05:35:28;;;;;;;19.53;6.30;;;;;;;19.52;36.26;94144.22;5028833;28;20439;-65
2022/04/09 05:37:56;;;;;;;18.30;7.43;;;;;;;19.60;36.44;94130.06;5028835;28;20450;-60
2022/04/09 05:40:28;;;;;;;19.13;9.63;;;;;;;19.60;36.46;94140.69;5028790;28;20450;-61
2022/04/09 05:42:59;;;;;;;10.60;5.03;;;;;;;19.35;35.79;94139.88;5029099;28;20448;-62
2022/04/09 05:45:26;;;;;;;15.33;5.53;;;;;;;19.36;35.27;94132.69;5029000;28;20490;-61
2022/04/09 05:47:53;;;;;;;12.87;5.80;;;;;;;19.33;36.23;94141.28;5028772;28;20485;-63
2022/04/09 05:50:34;;;;;;;14.97;6.13;;;;;;;19.68;35.71;94148.59;5028633;28;20670;-61
2022/04/09 05:53:02;;;;;;;12.63;5.00;;;;;;;19.96;35.39;94138.09;5028684;28;20484;-63
2022/04/09 05:55:29;;;;;;;8.97;4.07;;;;;;;19.90;34.95;94134.09;5028450;28;20460;-62
2022/04/09 05:57:57;;;;;;;9.83;3.70;;;;;;;19.74;34.60;94138.53;5028875;28;20444;-60
2022/04/09 06:00:27;;;;;;;9.53;4.27;;;;;;;19.78;34.60;94142.06;5028238;28;20824;-62
2022/04/09 06:03:06;;;;;;;9.60;3.73;;;;;;;19.79;34.57;94138.31;5028895;28;21022;-61
2022/04/09 06:05:37;;;;;;;11.40;4.07;;;;;;;19.82;34.98;94148.25;5028030;28;20854;-63
2022/04/09 06:08:10;;;;;;;15.50;4.60;;;;;;;19.44;34.56;94158.38;5028357;28;20447;-61
2022/04/09 06:10:39;;;;;;;8.80;4.07;;;;;;;19.65;34.98;94145.81;5028033;28;20448;-60
2022/04/09 06:13:06;;;;;;;11.00;4.13;;;;;;;19.18;35.27;94155.94;5028587;28;20925;-61
2022/04/09 06:15:34;;;;;;;9.07;4.10;;;;;;;19.23;35.58;94152.31;5028200;28;20456;-61
2022/04/09 06:18:08;;;;;;;14.47;5.03;;;;;;;19.57;34.77;94136.03;5027921;28;20927;-64
2022/04/09 06:20:35;;;;;;;9.77;4.37;;;;;;;19.66;34.95;94155.34;5029098;28;20451;-61
2022/04/09 06:23:06;;;;;;;7.27;3.20;;;;;;;19.60;34.72;94160.06;5028364;28;20489;-61
2022/04/09 06:25:34;;;;;;;7.30;3.20;;;;;;;19.89;34.53;94154.59;5027703;28;20462;-61
2022/04/09 06:28:02;;;;;;;9.57;3.33;;;;;;;20.09;34.01;94144.97;5028328;28;20981;-60
2022/04/09 06:30:32;;;;;;;10.30;3.77;;;;;;;19.97;34.56;94147.63;5027764;28;20494;-63
2022/04/09 06:33:07;;;;;;;8.87;3.37;;;;;;;20.03;34.32;94143.66;5029997;28;20478;-61
2022/04/09 06:35:36;;;;;;;15.13;3.83;;;;;;;19.81;35.19;94141.41;5027988;28;20887;-60
2022/04/09 06:38:07;;;;;;;13.77;3.73;;;;;;;20.09;35.39;94142.28;5028008;28;20444;-62
2022/04/09 06:40:34;;;;;;;9.33;4.00;;;;;;;20.34;34.79;94138.56;5027857;28;20443;-62
2022/04/09 06:43:02;;;;;;;12.27;4.87;;;;;;;20.09;35.68;94142.28;5028167;28;20436;-61
2022/04/09 06:45:53;;;;;;;33.60;5.00;;;;;;;20.53;35.48;94145.97;5027798;28;20617;-64
2022/04/09 06:48:41;;;;;;;13.67;4.60;;;;;;;20.36;35.11;94157.66;4998462;28;20450;-63
2022/04/09 06:51:28;;;;;;;12.03;4.23;;;;;;;19.92;35.35;94159.25;5017601;28;20436;-62
2022/04/09 06:54:18;;;;;;;11.57;4.10;;;;;;;20.29;35.27;94146.75;5027300;28;21077;-63
2022/04/09 06:56:45;;;;;;;17.70;4.50;;;;;;;20.33;35.32;94147.66;5028095;28;20459;-61
2022/04/09 06:59:13;;;;;;;9.43;4.33;;;;;;;20.39;35.80;94156.19;5028027;28;20502;-61
2022/04/09 07:01:40;;;;;;;13.13;4.13;;;;;;;20.11;35.14;94156.03;5027850;28;20482;-60
2022/04/09 07:04:07;;;;;;;10.80;4.67;;;;;;;19.95;35.36;94158.59;5027841;28;20438;-62
2022/04/09 07:06:34;;;;;;;12.20;4.57;;;;;;;20.55;34.51;94141.84;5028796;28;20985;-60
2022/04/09 07:09:01;;;;;;;15.07;4.43;;;;;;;20.87;34.66;94138.25;5029264;28;20458;-62
2022/04/09 07:11:28;;;;;;;8.47;4.27;;;;;;;20.67;35.05;94146.41;5028770;28;20474;-63
2022/04/09 07:13:54;;;;;;;9.37;4.07;;;;;;;20.95;34.75;94144.53;5029469;28;20491;-64
2022/04/09 07:16:21;;;;;;;11.53;4.40;;;;;;;20.95;34.66;94139.22;5028452;28;20972;-61
2022/04/09 07:18:48;;;;;;;17.30;4.50;;;;;;;20.88;33.91;94142.47;5029116;28;20465;-62
2022/04/09 07:21:15;;;;;;;9.87;3.50;;;;;;;21.08;33.42;94146.06;5028220;28;20474;-61
2022/04/09 07:23:42;;;;;;;10.50;3.40;;;;;;;21.24;33.44;94132.81;5029167;28;20448;-59
2022/04/09 07:26:09;;;;;;;9.07;4.03;;;;;;;21.16;32.99;94134.50;5028148;28;20831;-60
2022/04/09 07:28:36;;;;;;;8.53;3.33;;;;;;;20.43;33.04;94133.13;5029096;28;20520;-60
2022/04/09 07:31:03;;;;;;;7.20;2.90;;;;;;;20.46;32.53;94130.56;5028216;28;20452;-62
2022/04/09 07:33:30;;;;;;;8.53;2.63;;;;;;;20.88;32.88;94139.78;5028651;28;20467;-61
2022/04/09 07:35:57;;;;;;;7.17;2.70;;;;;;;20.15;33.19;94146.28;5029388;28;20493;-61
2022/04/09 07:38:24;;;;;;;8.80;3.00;;;;;;;20.87;32.83;94146.25;5032864;28;20474;-62
2022/04/09 07:40:54;;;;;;;12.73;3.27;;;;;;;20.77;32.60;94136.06;5032289;28;20521;-61
2022/04/09 07:43:21;;;;;;;10.90;3.00;;;;;;;21.36;32.40;94130.09;5032545;28;20443;-63
2022/04/09 07:45:48;;;;;;;6.67;2.80;;;;;;;21.63;32.43;94124.72;5031820;28;20455;-63
2022/04/09 07:48:15;;;;;;;8.93;2.87;;;;;;;22.01;31.50;94134.81;5032770;28;20446;-61
2022/04/09 07:50:42;;;;;;;11.13;3.80;;;;;;;22.04;31.99;94123.47;5031788;28;20513;-63
2022/04/09 07:53:09;;;;;;;13.47;4.30;;;;;;;22.04;31.32;94128.81;5032966;28;20526;-61
2022/04/09 07:55:36;;;;;;;10.93;3.10;;;;;;;21.93;31.09;94107.19;5031715;28;20459;-62
2022/04/09 07:58:05;;;;;;;6.57;2.50;;;;;;;22.20;31.50;94116.22;5032451;28;20443;-63
2022/04/09 08:00:33;;;;;;;5.83;2.90;;;;;;;22.48;31.26;94116.84;5031373;28;20459;-61
2022/04/09 08:03:00;;;;;;;12.23;2.87;;;;;;;22.41;30.56;94106.03;5032235;28;20192;-62
2022/04/09 08:05:28;;;;;;;10.33;3.07;;;;;;;22.43;30.25;94116.34;5031786;28;20189;-62
2022/04/09 08:07:54;;;;;;;7.73;2.83;;;;;;;22.79;30.55;94105.38;5032759;28;20205;-60
2022/04/09 08:10:21;;;;;;;15.10;3.03;;;;;;;22.60;31.13;94114.13;5031511;28;20769;-60
2022/04/09 08:12:51;;;;;;;11.77;3.13;;;;;;;22.64;30.14;94106.97;5032051;28;20201;-62
2022/04/09 08:15:19;;;;;;;9.70;3.00;;;;;;;23.05;30.91;94102.81;5031390;28;20217;-63
2022/04/09 08:17:47;;;;;;;11.23;2.67;;;;;;;23.08;30.30;94096.78;5032516;28;20463;-63
2022/04/09 08:20:19;;;;;;;8.23;3.27;;;;;;;23.26;29.72;94097.13;5031529;28;20255;-64
2022/04/09 08:22:46;;;;;;;12.27;2.77;;;;;;;23.52;29.87;94094.56;5032290;28;20286;-60
2022/04/09 08:25:13;;;;;;;7.17;3.03;;;;;;;23.69;29.15;94094.88;5031625;28;20173;-61
2022/04/09 08:27:42;;;;;;;7.23;2.57;;;;;;;23.76;29.48;94091.53;5032017;28;20235;-62
2022/04/09 08:30:10;;;;;;;8.93;2.70;;;;;;;24.00;29.05;94093.84;5031286;28;20198;-63
2022/04/09 08:32:37;;;;;;;12.50;3.10;;;;;;;24.21;29.38;94093.44;5032008;28;20239;-63
2022/04/09 08:35:05;;;;;;;7.20;3.13;;;;;;;24.36;29.20;94089.84;5031414;28;20853;-63
2022/04/09 08:37:32;;;;;;;11.10;2.90;;;;;;;24.53;28.77;94084.72;5031551;28;20220;-63
2022/04/09 08:39:59;;;;;;;9.17;3.10;;;;;;;24.60;28.04;94074.09;5029771;28;20743;-64
2022/04/09 08:42:28;;;;;;;6.37;3.23;;;;;;;24.61;27.59;94075.66;5031651;28;20317;-62
2022/04/09 08:44:55;;;;;;;9.03;3.70;;;;;;;24.54;27.03;94080.91;5030797;28;20204;-62
2022/04/09 08:47:25;;;;;;;13.83;3.33;;;;;;;24.73;26.74;94078.16;5031733;28;20591;-61
2022/04/09 08:49:53;;;;;;;7.70;2.97;;;;;;;24.55;27.40;94077.13;5031242;28;20197;-63
2022/04/09 08:52:20;;;;;;;7.80;3.37;;;;;;;24.42;27.51;94066.97;5031337;28;20233;-62
2022/04/09 08:54:48;;;;;;;6.27;2.40;;;;;;;24.44;27.33;94070.84;5030788;28;20282;-64
2022/04/09 08:57:15;;;;;;;6.70;2.30;;;;;;;24.57;26.87;94064.13;5032628;28;20209;-64
2022/04/09 08:59:42;;;;;;;5.57;2.60;;;;;;;24.00;27.06;94061.72;5031608;28;20204;-63
2022/04/09 09:02:15;;;;;;;8.57;3.20;;;;;;;24.17;26.84;94050.56;5031533;28;20274;-64
2022/04/09 09:04:43;;;;;;;9.77;3.00;;;;;;;24.04;26.56;94052.66;5031155;28;20219;-62
2022/04/09 09:07:21;;;;;;;5.33;2.40;;;;;;;24.19;25.73;94058.22;5031131;28;20197;-62
2022/04/09 09:09:51;;;;;;;6.30;2.50;;;;;;;24.65;26.60;94056.97;5030588;28;20209;-64
2022/04/09 09:12:31;;;;;;;6.17;2.67;;;;;;;25.00;25.91;94049.34;5030745;28;20197;-62
2022/04/09 09:15:03;;;;;;;11.07;3.90;;;;;;;25.09;26.26;94047.16;5030654;28;20632;-60
2022/04/09 09:17:31;;;;;;;13.93;2.57;;;;;;;24.74;25.22;94050.19;5030627;28;20248;-64
2022/04/09 09:19:59;;;;;;;6.33;2.53;;;;;;;24.28;26.16;94051.50;5044963;28;20215;-64
2022/04/09 09:22:40;;;;;;;6.20;2.57;;;;;;;24.98;25.81;94057.78;5050659;28;20196;-62
2022/04/09 09:25:11;;;;;;;10.47;2.93;;;;;;;24.32;26.32;94046.97;5050284;28;20200;-62
2022/04/09 09:27:42;;;;;;;6.07;3.17;;;;;;;24.55;26.58;94049.53;5050821;28;20181;-62
2022/04/09 09:30:12;;;;;;;10.20;4.17;;;;;;;24.80;26.16;94034.56;5050004;28;20200;-64
2022/04/09 09:32:41;;;;;;;10.23;4.33;;;;;;;24.95;26.06;94031.72;5050564;28;20197;-64
2022/04/09 09:35:12;;;;;;;4.03;2.10;;;;;;;24.09;26.06;94032.84;5050289;28;20270;-63
2022/04/09 09:37:39;;;;;;;5.50;2.83;;;;;;;24.03;26.96;94036.97;5050635;28;20196;-61
2022/04/09 09:40:07;;;;;;;7.03;3.37;;;;;;;23.90;26.84;94024.91;5049915;28;20275;-61
2022/04/09 09:42:35;;;;;;;18.77;9.47;;;;;;;24.29;26.39;94026.25;5050008;28;20196;-61
2022/04/09 09:45:04;;;;;;;7.17;3.67;;;;;;;24.05;25.86;94040.03;5050008;28;20258;-62
2022/04/09 09:47:31;;;;;;;19.13;11.67;;;;;;;24.85;25.09;94016.25;5050303;28;20204;-62
2022/04/09 09:49:58;;;;;;;14.97;7.77;;;;;;;25.37;24.34;94020.66;5049704;28;20258;-61
2022/04/09 09:52:30;;;;;;;13.30;7.70;;;;;;;25.77;25.00;94017.19;5049980;28;20207;-61
2022/04/09 09:55:14;;;;;;;12.83;7.67;;;;;;;26.69;24.47;94005.94;5049781;28;20264;-63
2022/04/09 09:57:43;;;;;;;5.97;2.90;;;;;;;26.89;22.96;94007.16;5050035;28;20227;-62
2022/04/09 10:00:12;;;;;;;7.70;2.77;;;;;;;26.68;22.44;94004.38;5048894;28;20187;-64
2022/04/09 10:02:39;;;;;;;9.43;3.30;;;;;;;25.64;23.24;93994.47;5049604;28;20754;-62
2022/04/09 10:05:07;;;;;;;8.27;3.90;;;;;;;25.64;22.94;93997.16;5049442;28;20204;-62
2022/04/09 10:07:35;;;;;;;6.73;1.87;;;;;;;25.60;23.63;93996.38;5049684;28;20231;-61
2022/04/09 10:10:03;;;;;;;9.03;3.63;;;;;;;25.70;23.28;93995.66;5049194;28;20705;-60
2022/04/09 10:12:41;;;;;;;4.80;1.90;;;;;;;25.75;22.57;93984.59;5049659;28;20261;-62
2022/04/09 10:15:09;;;;;;;5.03;1.63;;;;;;;26.37;22.63;93994.22;5049520;28;20231;-60
2022/04/09 10:17:38;;;;;;;4.23;1.40;;;;;;;25.97;22.80;94000.47;5049520;28;20385;-63
2022/04/09 10:20:05;;;;;;;5.87;1.40;;;;;;;25.44;22.77;94009.22;5049352;28;20647;-62
2022/04/09 10:22:36;;;;;;;4.90;1.70;;;;;;;24.67;22.86;94001.88;5049745;28;20203;-63
2022/04/09 10:25:06;;;;;;;5.87;1.37;;;;;;;24.72;22.61;94001.59;5049043;28;20204;-64
2022/04/09 10:27:44;;;;;;;3.43;1.40;;;;;;;24.75;22.35;93995.50;5049522;28;20682;-62
2022/04/09 10:30:13;;;;;;;4.13;1.73;;;;;;;24.75;22.90;93995.50;5049253;28;20226;-63
2022/04/09 10:32:44;;;;;;;4.10;1.20;;;;;;;24.59;23.29;93994.91;5049144;28;20228;-62
2022/04/09 10:35:24;;;;;;;3.10;1.37;;;;;;;25.22;22.70;93991.41;5048948;28;20219;-60
2022/04/09 10:38:09;;;;;;;4.23;1.57;;;;;;;25.49;22.33;93995.50;5049551;28;20196;-61
2022/04/09 10:40:57;;;;;;;5.33;1.30;;;;;;;25.51;22.40;93993.22;5048616;28;20196;-62
2022/04/09 10:43:27;;;;;;;3.70;1.30;;;;;;;24.97;22.43;93991.91;5048998;28;20200;-60
2022/04/09 10:46:00;;;;;;;4.37;1.70;;;;;;;24.85;22.43;93983.38;5048699;28;20275;-61
2022/04/09 10:48:32;;;;;;;4.27;1.63;;;;;;;25.44;22.66;93969.00;5049014;28;20675;-62
2022/04/09 10:51:07;;;;;;;3.53;1.37;;;;;;;25.99;22.56;93965.19;5048522;28;20737;-60
2022/04/09 10:53:35;;;;;;;2.47;1.40;;;;;;;26.17;21.98;93971.47;5049030;28;20226;-61
2022/04/09 10:56:26;;;;;;;7.13;1.87;;;;;;;26.58;21.83;93964.00;5048512;28;20199;-62
2022/04/09 10:59:29;;;;;;;2.47;1.20;;;;;;;25.73;21.83;93944.72;5049396;28;20223;-63
2022/04/09 11:01:56;;;;;;;4.90;1.20;;;;;;;26.28;22.25;93947.34;5048897;28;20219;-62
2022/04/09 11:04:29;;;;;;;1.40;1.20;;;;;;;26.08;22.35;93952.25;5048771;28;20181;-62
2022/04/09 11:07:02;;;;;;;8.27;1.40;;;;;;;26.95;21.88;93951.84;5049047;28;20192;-61
2022/04/09 11:09:46;;;;;;;4.70;1.30;;;;;;;25.61;22.45;93960.34;5048846;28;20678;-61
2022/04/09 11:12:19;;;;;;;3.57;1.50;;;;;;;25.86;22.15;93955.91;5051304;28;20199;-61
2022/04/09 11:15:00;;;;;;;5.67;1.30;;;;;;;26.19;21.43;93939.66;5052546;28;20358;-62
2022/04/09 11:17:38;;;;;;;6.03;1.60;;;;;;;26.98;21.26;93943.03;5052900;28;20321;-61
2022/04/09 11:20:14;;;;;;;3.37;1.30;;;;;;;26.32;21.48;93940.88;5052840;28;20196;-62
2022/04/09 11:22:47;;;;;;;2.60;1.20;;;;;;;26.01;21.91;93946.81;5052449;28;20682;-62
2022/04/09 11:25:19;;;;;;;3.17;1.40;;;;;;;26.51;21.37;93943.25;5052657;28;20204;-61
2022/04/09 11:27:46;;;;;;;5.37;1.80;;;;;;;25.95;21.65;93942.94;5052795;28;20722;-61
2022/04/09 11:30:13;;;;;;;3.37;1.47;;;;;;;26.16;21.88;93934.25;5052993;28;20201;-62
2022/04/09 11:32:41;;;;;;;3.57;1.47;;;;;;;25.91;21.90;93931.41;5052345;28;20212;-62
2022/04/09 11:35:12;;;;;;;6.77;1.90;;;;;;;26.70;21.46;93921.47;5052289;28;20212;-62
2022/04/09 11:37:49;;;;;;;13.43;9.53;;;;;;;26.37;21.49;93924.38;5052611;28;20242;-61
2022/04/09 11:40:20;;;;;;;3.97;1.33;;;;;;;25.50;22.51;93921.94;5052391;28;20734;-62
2022/04/09 11:42:52;;;;;;;3.43;1.43;;;;;;;25.54;22.16;93917.38;5052468;28;20637;-61
2022/04/09 11:45:27;;;;;;;4.07;1.57;;;;;;;25.86;21.78;93929.84;5052520;28;20669;-63
2022/04/09 11:47:59;;;;;;;3.27;1.43;;;;;;;26.15;21.00;93919.31;5052614;28;20271;-61